VMMC/MFM METAR and TAF weather

Enter ICAO airport designator
Station Type Date Time Source
VMMC METAR 2021/08/02 02:00 UTC NOAA

VMMC 020200Z 17004KT 9999 FEW015 SCT025 29/26 Q0999 NOSIG


Station Type Date Time Source
VMMC Decoded METAR 2021/08/02 02:00 UTC NOAA

Taipa, Macau (VMMC) 22-10N 113-34E
Aug 01, 2021 - 10:00 PM EDT / 2021.08.02 0200 UTC
Wind: from the S (170 degrees) at 5 MPH (4 KT):0
Visibility: greater than 7 mile(s):0
Sky conditions: partly cloudy
Temperature: 84 F (29 C)
Dew Point: 78 F (26 C)
Relative Humidity: 83%
Pressure (altimeter): 29.50 in. Hg (0999 hPa)
ob: VMMC 020200Z 17004KT 9999 FEW015 SCT025 29/26 Q0999 NOSIG
cycle: 2

Station Type Date Time Source
VMMC TAF 2021/08/01 18:22 UTC NOAA

TAF VMMC 011700Z 0118/0224 21008KT 9999 FEW015 SCT025
TEMPO 0121/0203 VRB18G28KT 2500 +TSRA FEW008CB SCT012
TEMPO 0203/0209 3500 SHRA FEW010CB SCT020

Example: see airport list